Time;durP1;ratioP1;P1;durP2;ratioP2;P2;SDS_P1;SDS_P2;PMS_P1;PMS_P2;Temp;Humidity;BMP_temperature;BMP_pressure;BME280_temperature;BME280_humidity;BME280_pressure;Samples;Min_cycle;Max_cycle;Signal;HPM_P1;HPM_P2
2021/10/20 00:02:24;;;;;;;6.30;3.10;;;;;;;14.13;100.00;100829.22;6322891;28;20047;-74
2021/10/20 00:05:25;;;;;;;5.65;2.80;;;;;;;14.13;100.00;100823.94;6322382;28;20048;-75
2021/10/20 00:08:28;;;;;;;5.50;2.47;;;;;;;14.08;100.00;100821.59;6323069;28;20051;-75
2021/10/20 00:11:29;;;;;;;4.93;2.80;;;;;;;14.04;100.00;100821.91;6322500;28;20048;-75
2021/10/20 00:14:30;;;;;;;3.63;2.13;;;;;;;14.01;100.00;100827.38;6322482;28;20044;-75
2021/10/20 00:17:32;;;;;;;4.18;2.35;;;;;;;13.98;100.00;100812.56;6322352;28;20519;-75
2021/10/20 00:20:34;;;;;;;3.58;2.25;;;;;;;13.95;100.00;100810.16;6322478;28;20048;-75
2021/10/20 00:23:36;;;;;;;5.22;2.72;;;;;;;13.91;100.00;100817.44;6322156;28;20052;-75
2021/10/20 00:26:38;;;;;;;4.13;2.67;;;;;;;13.89;100.00;100810.53;6322054;28;20044;-75
2021/10/20 00:29:39;;;;;;;2.97;2.00;;;;;;;13.85;100.00;100801.13;6321604;28;20051;-75
2021/10/20 00:32:41;;;;;;;4.13;2.45;;;;;;;13.86;100.00;100800.19;6320176;28;20097;-75
2021/10/20 00:35:42;;;;;;;5.28;2.40;;;;;;;13.86;100.00;100794.91;6321938;28;20415;-75
2021/10/20 00:38:45;;;;;;;4.65;2.90;;;;;;;13.85;100.00;100790.53;6321862;28;20044;-75
2021/10/20 00:41:46;;;;;;;4.13;2.25;;;;;;;13.81;100.00;100789.94;6322199;28;20051;-75
2021/10/20 00:44:49;;;;;;;3.55;2.25;;;;;;;13.82;100.00;100790.78;6321526;28;20135;-75
2021/10/20 00:47:50;;;;;;;4.07;2.50;;;;;;;13.81;100.00;100773.25;6321855;28;20054;-75
2021/10/20 00:50:52;;;;;;;3.85;2.20;;;;;;;13.85;100.00;100777.34;6321946;28;20055;-75
2021/10/20 00:53:57;;;;;;;4.05;2.50;;;;;;;13.87;100.00;100768.38;6321312;28;20507;-75
2021/10/20 00:56:58;;;;;;;4.22;2.55;;;;;;;13.91;100.00;100764.59;6321750;28;20051;-75
2021/10/20 01:00:01;;;;;;;3.03;2.00;;;;;;;13.85;100.00;100762.38;6319697;28;20052;-75
2021/10/20 01:03:03;;;;;;;5.95;2.50;;;;;;;13.84;100.00;100757.16;6321433;28;20509;-75
2021/10/20 01:06:05;;;;;;;3.80;2.58;;;;;;;13.91;100.00;100750.53;6321288;28;20052;-75
2021/10/20 01:09:07;;;;;;;2.92;2.05;;;;;;;13.92;100.00;100742.50;6321701;28;20044;-74
2021/10/20 01:12:09;;;;;;;3.58;2.17;;;;;;;13.99;100.00;100742.94;6321319;28;20040;-75
2021/10/20 01:15:12;;;;;;;5.05;2.67;;;;;;;14.06;100.00;100733.63;6321395;28;20044;-75
2021/10/20 01:18:14;;;;;;;3.42;2.25;;;;;;;14.00;100.00;100731.41;6321241;28;20055;-75
2021/10/20 01:21:19;;;;;;;2.33;1.60;;;;;;;14.03;100.00;100725.91;6321517;28;20491;-75
2021/10/20 01:24:21;;;;;;;5.57;2.42;;;;;;;13.95;100.00;100725.59;6321352;28;20503;-74
2021/10/20 01:27:23;;;;;;;3.63;1.98;;;;;;;13.96;100.00;100714.06;6320969;28;20048;-75
2021/10/20 01:30:24;;;;;;;4.18;1.80;;;;;;;13.97;100.00;100715.75;6319827;28;20518;-75
2021/10/20 01:33:25;;;;;;;3.42;2.03;;;;;;;14.01;100.00;100701.41;6321086;28;20422;-75
2021/10/20 01:36:28;;;;;;;3.47;1.85;;;;;;;14.02;100.00;100704.88;6321334;28;20518;-74
2021/10/20 01:39:30;;;;;;;3.75;1.90;;;;;;;14.00;100.00;100705.00;6320908;28;20407;-74
2021/10/20 01:42:31;;;;;;;4.13;2.25;;;;;;;13.99;100.00;100689.22;6321236;28;20047;-76
2021/10/20 01:45:35;;;;;;;3.13;2.08;;;;;;;13.99;100.00;100684.81;6320863;28;20052;-75
2021/10/20 01:48:36;;;;;;;4.43;2.15;;;;;;;13.93;100.00;100687.84;6321290;28;20048;-75
2021/10/20 01:51:39;;;;;;;1.67;1.50;;;;;;;13.98;100.00;100675.19;6325576;28;20051;-74
2021/10/20 01:54:40;;;;;;;3.80;1.60;;;;;;;14.00;100.00;100675.09;6335633;22;20469;-75
2021/10/20 01:57:42;;;;;;;3.92;2.60;;;;;;;14.02;100.00;100667.88;6251196;28;20048;-75
2021/10/20 02:00:43;;;;;;;3.75;2.20;;;;;;;14.07;100.00;100660.47;6236784;28;20057;-75
2021/10/20 02:03:45;;;;;;;2.83;1.83;;;;;;;14.10;100.00;100650.56;6260663;28;20516;-75
2021/10/20 02:06:48;;;;;;;4.22;2.00;;;;;;;14.09;100.00;100655.97;6272109;28;20049;-76
2021/10/20 02:09:49;;;;;;;1.77;1.45;;;;;;;14.06;100.00;100646.44;6275756;28;20044;-75
2021/10/20 02:12:50;;;;;;;2.78;1.70;;;;;;;14.06;100.00;100638.50;6275334;28;20048;-75
2021/10/20 02:15:52;;;;;;;5.03;1.70;;;;;;;14.09;100.00;100638.31;6274900;28;20060;-75
2021/10/20 02:18:53;;;;;;;3.13;1.70;;;;;;;14.09;100.00;100634.81;6275233;28;20048;-75
2021/10/20 02:21:57;;;;;;;2.17;1.65;;;;;;;14.07;100.00;100616.41;6275068;28;20049;-75
2021/10/20 02:24:58;;;;;;;2.72;1.70;;;;;;;14.08;100.00;100614.59;6274875;28;20053;-75
2021/10/20 02:27:59;;;;;;;3.47;1.70;;;;;;;14.06;100.00;100624.44;6274856;28;20049;-75
2021/10/20 02:31:01;;;;;;;7.32;2.30;;;;;;;14.05;100.00;100613.03;6274560;28;20053;-75
2021/10/20 02:34:02;;;;;;;2.47;1.42;;;;;;;14.04;100.00;100603.44;6274816;28;20056;-76
2021/10/20 02:37:05;;;;;;;2.35;1.75;;;;;;;13.96;100.00;100608.41;6274614;28;20057;-75
2021/10/20 02:40:08;;;;;;;3.50;1.92;;;;;;;13.98;100.00;100606.47;6274711;28;20052;-75
2021/10/20 02:43:09;;;;;;;3.05;1.67;;;;;;;13.97;100.00;100604.78;6274859;28;20056;-75
2021/10/20 02:46:11;;;;;;;4.07;1.75;;;;;;;14.02;100.00;100592.09;6274453;28;20053;-75
2021/10/20 02:49:12;;;;;;;2.33;1.65;;;;;;;14.00;100.00;100590.53;6274520;28;20484;-75
2021/10/20 02:52:15;;;;;;;2.13;1.52;;;;;;;13.97;100.00;100591.59;6274691;28;20053;-76
2021/10/20 02:55:16;;;;;;;4.22;1.75;;;;;;;13.96;100.00;100589.91;6273864;28;20056;-75
2021/10/20 02:58:17;;;;;;;4.10;1.95;;;;;;;13.91;100.00;100584.94;6273902;28;20416;-74
2021/10/20 03:01:19;;;;;;;2.08;1.27;;;;;;;13.90;100.00;100582.41;6273112;28;20508;-75
2021/10/20 03:04:20;;;;;;;3.90;1.92;;;;;;;13.85;100.00;100572.16;6273371;28;20049;-75
2021/10/20 03:07:23;;;;;;;2.08;1.58;;;;;;;13.83;100.00;100575.84;6273979;28;20048;-76
2021/10/20 03:10:24;;;;;;;2.10;1.50;;;;;;;13.83;100.00;100576.69;6273953;28;20044;-75
2021/10/20 03:13:26;;;;;;;2.17;1.30;;;;;;;13.92;100.00;100576.06;6273855;28;20053;-75
2021/10/20 03:16:27;;;;;;;1.85;1.42;;;;;;;13.97;100.00;100578.38;6273666;28;20060;-75
2021/10/20 03:19:29;;;;;;;2.60;1.50;;;;;;;13.98;100.00;100576.56;6274092;28;20052;-75
2021/10/20 03:22:33;;;;;;;2.80;1.75;;;;;;;13.95;100.00;100564.44;6273662;28;20055;-75
2021/10/20 03:25:34;;;;;;;2.30;1.50;;;;;;;13.95;100.00;100565.28;6273307;28;20605;-75
2021/10/20 03:28:35;;;;;;;2.28;1.42;;;;;;;13.93;100.00;100548.69;6273525;28;20045;-76
2021/10/20 03:31:37;;;;;;;1.75;1.20;;;;;;;13.88;100.00;100549.97;6273725;28;20049;-75
2021/10/20 03:34:38;;;;;;;4.65;1.65;;;;;;;13.89;100.00;100547.19;6272260;28;20419;-75
2021/10/20 03:37:41;;;;;;;2.35;1.50;;;;;;;13.94;100.00;100537.19;6273548;28;20048;-75
2021/10/20 03:40:42;;;;;;;3.33;1.60;;;;;;;13.89;100.00;100522.59;6273252;28;20512;-75
2021/10/20 03:43:44;;;;;;;1.55;1.13;;;;;;;13.83;100.00;100523.03;6273086;28;20523;-75
2021/10/20 03:46:45;;;;;;;4.68;1.17;;;;;;;13.83;100.00;100507.19;6273133;28;20041;-75
2021/10/20 03:49:47;;;;;;;1.70;1.20;;;;;;;13.80;100.00;100513.50;6272992;28;20041;-75
2021/10/20 03:52:49;;;;;;;1.15;1.05;;;;;;;13.79;100.00;100511.81;6273171;28;20049;-75
2021/10/20 03:55:51;;;;;;;2.05;1.30;;;;;;;13.69;100.00;100503.72;6271822;28;20049;-75
2021/10/20 03:58:52;;;;;;;2.28;1.10;;;;;;;13.68;100.00;100502.03;6272033;28;20503;-75
2021/10/20 04:01:53;;;;;;;2.05;1.27;;;;;;;13.70;100.00;100489.53;6271891;28;20049;-75
2021/10/20 04:04:55;;;;;;;1.98;1.10;;;;;;;13.67;100.00;100495.06;6270507;28;20056;-76
2021/10/20 04:07:57;;;;;;;2.25;1.30;;;;;;;13.65;100.00;100489.03;6271665;28;20400;-76
2021/10/20 04:10:59;;;;;;;6.30;1.45;;;;;;;13.70;100.00;100480.78;6271979;28;20056;-75
2021/10/20 04:14:00;;;;;;;2.83;1.05;;;;;;;13.66;100.00;100480.16;6270787;28;20053;-75
2021/10/20 04:17:01;;;;;;;2.22;1.63;;;;;;;13.61;100.00;100489.34;6271460;28;20049;-76
2021/10/20 04:20:04;;;;;;;3.40;1.55;;;;;;;13.60;100.00;100485.03;6270483;28;20048;-75
2021/10/20 04:23:06;;;;;;;2.30;1.65;;;;;;;13.68;100.00;100482.69;6271092;28;20503;-75
2021/10/20 04:26:08;;;;;;;2.35;1.45;;;;;;;13.80;100.00;100489.75;6263983;28;20049;-75
2021/10/20 04:29:09;;;;;;;1.70;1.30;;;;;;;13.85;100.00;100470.91;6271232;28;20045;-75
2021/10/20 04:32:11;;;;;;;1.98;1.70;;;;;;;13.82;100.00;100472.00;6270790;28;20411;-75
2021/10/20 04:35:12;;;;;;;2.38;1.38;;;;;;;13.85;100.00;100469.16;6269903;28;20048;-76
2021/10/20 04:38:16;;;;;;;5.38;1.73;;;;;;;13.85;100.00;100468.28;6270969;28;20049;-76
2021/10/20 04:41:17;;;;;;;1.65;1.20;;;;;;;13.83;100.00;100460.47;6271065;28;20055;-76
2021/10/20 04:44:19;;;;;;;3.22;1.70;;;;;;;13.78;100.00;100462.59;6270533;28;20053;-75
2021/10/20 04:47:20;;;;;;;2.42;1.55;;;;;;;13.80;100.00;100449.28;6270852;28;20052;-75
2021/10/20 04:50:22;;;;;;;2.28;1.38;;;;;;;13.75;100.00;100448.75;6270955;28;20045;-76
2021/10/20 04:53:24;;;;;;;2.53;1.50;;;;;;;13.74;100.00;100439.16;6270449;28;20052;-75
2021/10/20 04:56:26;;;;;;;2.38;1.50;;;;;;;13.68;100.00;100443.09;6235604;28;1020664;-75
2021/10/20 04:59:31;;;;;;;2.00;1.50;;;;;;;13.69;100.00;100440.34;6271555;28;20053;-74
2021/10/20 05:02:35;;;;;;;2.72;1.55;;;;;;;13.75;100.00;100427.63;6271282;28;20404;-75
2021/10/20 05:05:37;;;;;;;1.90;1.40;;;;;;;13.83;100.00;100425.28;6270762;28;20049;-75
2021/10/20 05:08:39;;;;;;;2.85;1.90;;;;;;;13.81;100.00;100425.41;6271499;28;20052;-74
2021/10/20 05:11:41;;;;;;;1.70;1.30;;;;;;;13.81;100.00;100425.41;6271435;28;20060;-75
2021/10/20 05:14:42;;;;;;;2.60;1.60;;;;;;;13.78;100.00;100427.44;6271228;28;20052;-76
2021/10/20 05:17:44;;;;;;;2.15;1.30;;;;;;;13.77;100.00;100418.66;6271527;28;20076;-75
2021/10/20 05:20:47;;;;;;;2.60;1.73;;;;;;;13.81;100.00;100417.50;6271747;28;20048;-74
2021/10/20 05:23:51;;;;;;;3.22;1.98;;;;;;;13.78;100.00;100407.13;6271118;28;20447;-78
2021/10/20 05:26:54;;;;;;;2.53;1.50;;;;;;;13.74;100.00;100399.56;6276447;28;20052;-74
2021/10/20 05:29:57;;;;;;;2.15;1.60;;;;;;;13.76;100.00;100387.06;6276542;28;20049;-75
2021/10/20 05:32:58;;;;;;;4.13;2.00;;;;;;;13.72;100.00;100386.47;6276305;28;20103;-74
2021/10/20 05:36:00;;;;;;;1.88;1.60;;;;;;;13.74;100.00;100379.25;6268695;28;20052;-75
2021/10/20 05:39:04;;;;;;;2.85;1.45;;;;;;;13.75;100.00;100372.19;6251434;28;20045;-75
2021/10/20 05:42:06;;;;;;;2.15;1.60;;;;;;;13.76;100.00;100364.13;6251538;28;20049;-75
2021/10/20 05:45:08;;;;;;;4.47;2.10;;;;;;;13.76;100.00;100360.66;6250798;28;20416;-75
2021/10/20 05:48:09;;;;;;;5.65;1.75;;;;;;;13.90;100.00;100344.66;6251573;28;20042;-74
2021/10/20 05:51:10;;;;;;;3.13;1.75;;;;;;;13.82;100.00;100342.56;6251151;28;20483;-75
2021/10/20 05:54:13;;;;;;;3.13;1.70;;;;;;;13.81;100.00;100335.63;6259194;28;20060;-72
2021/10/20 05:57:14;;;;;;;3.25;1.92;;;;;;;13.87;100.00;100334.31;6274973;28;20424;-73
2021/10/20 06:00:17;;;;;;;2.75;1.42;;;;;;;13.89;100.00;100324.47;6274893;28;20492;-74
2021/10/20 06:03:18;;;;;;;2.45;1.80;;;;;;;13.92;100.00;100333.00;6270500;28;20052;-75
2021/10/20 06:06:19;;;;;;;3.25;1.98;;;;;;;13.99;100.00;100335.19;6275050;28;20057;-75
2021/10/20 06:09:22;;;;;;;3.55;1.77;;;;;;;14.03;100.00;100352.50;6275817;28;20057;-74
2021/10/20 06:12:23;;;;;;;3.15;1.90;;;;;;;14.19;98.69;100356.53;6275357;28;20052;-74
2021/10/20 06:15:25;;;;;;;3.08;2.25;;;;;;;14.19;98.68;100356.53;6275160;28;20059;-74
2021/10/20 06:18:28;;;;;;;2.47;1.65;;;;;;;14.21;98.37;100346.69;6275139;28;20049;-75
2021/10/20 06:21:29;;;;;;;2.92;1.80;;;;;;;14.21;98.42;100346.69;6275389;28;20052;-74
2021/10/20 06:24:32;;;;;;;2.53;1.85;;;;;;;14.15;98.52;100354.25;6274723;28;20060;-74
2021/10/20 06:27:33;;;;;;;2.78;1.80;;;;;;;14.19;98.29;100342.50;6274628;28;20053;-74
2021/10/20 06:30:35;;;;;;;3.47;2.00;;;;;;;14.14;99.75;100336.72;6274872;28;20049;-74
2021/10/20 06:33:36;;;;;;;3.72;1.98;;;;;;;14.12;99.73;100326.22;6274215;28;20044;-73
2021/10/20 06:36:38;;;;;;;4.05;1.67;;;;;;;14.08;100.00;100322.16;6265591;28;20056;-74
2021/10/20 06:39:40;;;;;;;4.90;2.00;;;;;;;14.09;100.00;100318.56;6274834;28;20052;-74
2021/10/20 06:42:42;;;;;;;4.68;1.95;;;;;;;14.08;100.00;100319.53;6275017;28;20048;-74
2021/10/20 06:45:43;;;;;;;3.40;1.90;;;;;;;14.09;100.00;100337.06;6274576;28;20045;-74
2021/10/20 06:48:44;;;;;;;4.97;2.10;;;;;;;14.11;100.00;100321.91;6274967;28;20048;-75
2021/10/20 06:51:46;;;;;;;3.40;1.67;;;;;;;14.19;99.71;100329.28;6274801;28;20503;-75
2021/10/20 06:54:48;;;;;;;3.83;2.10;;;;;;;14.19;100.00;100334.56;6274374;28;20060;-75
2021/10/20 06:57:50;;;;;;;4.10;2.50;;;;;;;14.27;100.00;100331.34;6274393;28;20394;-75
2021/10/20 07:00:51;;;;;;;4.55;2.05;;;;;;;14.26;100.00;100330.50;6274511;28;20049;-73
2021/10/20 07:03:52;;;;;;;4.85;1.98;;;;;;;14.25;100.00;100318.22;6273034;28;20416;-75
2021/10/20 07:06:55;;;;;;;2.50;1.80;;;;;;;14.23;100.00;100325.44;6274117;28;20052;-74
2021/10/20 07:09:58;;;;;;;4.38;2.20;;;;;;;14.24;100.00;100318.34;6274383;28;20049;-75
2021/10/20 07:12:59;;;;;;;3.33;1.90;;;;;;;14.28;100.00;100306.59;6271724;28;20051;-74
2021/10/20 07:16:00;;;;;;;3.33;2.15;;;;;;;14.34;100.00;100314.88;6272680;28;20045;-75
2021/10/20 07:19:05;;;;;;;4.93;1.88;;;;;;;14.33;100.00;100301.81;6271864;28;20045;-74
2021/10/20 07:22:08;;;;;;;2.83;2.00;;;;;;;14.34;100.00;100290.25;6266956;28;20547;-74
2021/10/20 07:25:13;;;;;;;4.15;2.25;;;;;;;14.32;100.00;100279.81;6273156;28;20048;-73
2021/10/20 07:28:15;;;;;;;3.83;2.40;;;;;;;14.34;100.00;100279.69;6273803;28;20057;-74
2021/10/20 07:31:16;;;;;;;6.00;2.50;;;;;;;14.39;100.00;100278.38;6271053;28;20061;-73
2021/10/20 07:34:18;;;;;;;4.32;2.17;;;;;;;14.39;100.00;100273.09;6266057;28;20053;-73
2021/10/20 07:37:19;;;;;;;3.90;2.25;;;;;;;14.41;100.00;100268.53;6263496;28;20052;-73
2021/10/20 07:40:22;;;;;;;4.45;2.08;;;;;;;14.41;100.00;100265.88;6267260;28;20048;-73
2021/10/20 07:43:23;;;;;;;8.73;3.10;;;;;;;14.46;100.00;100266.38;6268719;28;20056;-72
2021/10/20 07:46:24;;;;;;;4.85;2.33;;;;;;;14.49;100.00;100267.13;6267459;28;20044;-74
2021/10/20 07:49:26;;;;;;;3.47;1.88;;;;;;;14.51;100.00;100257.28;6268334;28;20048;-73
2021/10/20 07:52:28;;;;;;;2.13;1.42;;;;;;;14.51;100.00;100246.69;6266353;28;20446;-73
2021/10/20 07:55:32;;;;;;;4.43;2.15;;;;;;;14.53;100.00;100240.31;6278731;22;20053;-75
2021/10/20 07:58:35;;;;;;;2.97;1.85;;;;;;;14.56;100.00;100237.44;6241929;28;20045;-75
2021/10/20 08:01:36;;;;;;;2.70;1.55;;;;;;;14.58;100.00;100217.03;6241550;28;20046;-76
2021/10/20 08:04:37;;;;;;;2.97;2.00;;;;;;;14.61;100.00;100219.41;6240236;28;20086;-76
2021/10/20 08:07:44;;;;;;;3.53;2.03;;;;;;;14.60;100.00;100217.72;6241746;28;20052;-75
2021/10/20 08:10:47;;;;;;;3.33;1.92;;;;;;;14.66;99.93;100200.53;6245714;28;20045;-75
2021/10/20 08:13:48;;;;;;;4.18;2.13;;;;;;;14.77;99.40;100189.97;6240641;28;20053;-76
2021/10/20 08:16:50;;;;;;;4.32;2.08;;;;;;;14.92;97.96;100193.19;6247087;28;20057;-75
2021/10/20 08:19:51;;;;;;;3.05;1.95;;;;;;;14.98;97.69;100187.38;6246803;28;20139;-76
2021/10/20 08:22:53;;;;;;;2.95;1.98;;;;;;;15.06;97.89;100195.53;6246125;28;20045;-75
2021/10/20 08:25:55;;;;;;;3.85;2.13;;;;;;;15.09;97.57;100197.94;6246826;28;20038;-75
2021/10/20 08:28:57;;;;;;;5.38;1.92;;;;;;;15.19;97.37;100187.44;6240326;28;20140;-76
2021/10/20 08:31:58;;;;;;;3.72;2.08;;;;;;;15.22;97.90;100203.09;6244182;28;20057;-75
2021/10/20 08:34:59;;;;;;;4.10;1.95;;;;;;;15.29;97.35;100206.91;6241097;28;20053;-76
2021/10/20 08:38:03;;;;;;;3.45;2.00;;;;;;;15.36;96.35;100204.63;6240731;28;20057;-76
2021/10/20 08:41:07;;;;;;;3.03;1.85;;;;;;;15.39;96.03;100194.59;6246421;28;20499;-75
2021/10/20 08:44:10;;;;;;;2.78;1.77;;;;;;;15.42;96.50;100180.28;6244689;28;20057;-76
2021/10/20 08:47:13;;;;;;;2.80;2.08;;;;;;;15.50;95.39;100179.66;6241539;28;20049;-75
2021/10/20 08:50:18;;;;;;;4.57;2.45;;;;;;;15.57;95.21;100178.16;6245727;28;20045;-75
2021/10/20 08:53:20;;;;;;;6.85;2.88;;;;;;;15.71;95.11;100175.22;6246110;28;20072;-76
2021/10/20 08:56:23;;;;;;;5.35;2.03;;;;;;;15.81;94.87;100156.75;6246436;28;20045;-76
2021/10/20 08:59:24;;;;;;;3.25;2.10;;;;;;;15.87;95.22;100151.78;6240821;28;20041;-76
2021/10/20 09:02:26;;;;;;;4.40;2.38;;;;;;;15.88;93.97;100148.16;6241624;28;20038;-75
2021/10/20 09:05:29;;;;;;;3.63;1.80;;;;;;;16.01;92.61;100131.19;6243000;28;20049;-75
2021/10/20 09:08:40;;;;;;;4.35;2.35;;;;;;;15.95;91.85;100128.09;6245412;28;20583;-75
2021/10/20 09:11:42;;;;;;;4.95;2.35;;;;;;;15.98;91.63;100106.63;6246975;28;20053;-75
2021/10/20 09:14:44;;;;;;;3.38;1.92;;;;;;;15.93;92.45;100089.44;6246304;28;20413;-75
2021/10/20 09:17:48;;;;;;;3.38;2.28;;;;;;;15.95;92.05;100100.78;6246592;28;20420;-75
2021/10/20 09:20:51;;;;;;;4.20;2.13;;;;;;;15.94;90.39;100105.25;6246611;28;20049;-75
2021/10/20 09:23:52;;;;;;;3.78;2.20;;;;;;;15.87;91.56;100084.69;6246619;28;20053;-75
2021/10/20 09:26:57;;;;;;;6.57;1.60;;;;;;;15.89;92.69;100099.47;6246576;28;20064;-76
2021/10/20 09:30:08;;;;;;;9.85;3.13;;;;;;;15.85;92.34;100115.75;6246844;28;20068;-75
2021/10/20 09:33:10;;;;;;;3.85;2.35;;;;;;;15.95;91.87;100124.63;6246444;28;20053;-74
2021/10/20 09:36:14;;;;;;;4.22;2.88;;;;;;;16.10;91.69;100125.94;6232906;28;20053;-77
2021/10/20 09:39:15;;;;;;;4.07;2.35;;;;;;;16.19;89.77;100121.66;6221858;28;20103;-75
2021/10/20 09:42:19;;;;;;;5.93;2.13;;;;;;;16.35;90.46;100092.84;6221903;28;20426;-75
2021/10/20 09:45:22;;;;;;;3.47;2.00;;;;;;;16.40;91.39;100077.38;6221418;28;20638;-75
2021/10/20 09:48:26;;;;;;;4.43;2.50;;;;;;;16.30;91.86;100052.59;6222063;28;20052;-75
2021/10/20 09:51:28;;;;;;;5.28;2.50;;;;;;;16.35;89.48;100054.84;6221973;28;20057;-75
2021/10/20 09:54:34;;;;;;;2.35;1.77;;;;;;;16.59;89.10;100063.31;6223471;28;20060;-75
2021/10/20 09:57:36;;;;;;;3.40;2.30;;;;;;;16.57;89.31;100049.31;6243489;28;20063;-75
2021/10/20 10:00:38;;;;;;;4.82;2.13;;;;;;;16.54;89.19;100028.38;6246219;28;20041;-75
2021/10/20 10:03:40;;;;;;;2.95;1.95;;;;;;;16.56;89.31;100034.38;6245848;28;20420;-75
2021/10/20 10:06:41;;;;;;;3.00;1.70;;;;;;;16.68;88.12;100025.31;6245554;28;20458;-76
2021/10/20 10:09:43;;;;;;;3.55;1.55;;;;;;;16.66;89.82;100043.19;6246496;28;20046;-77
2021/10/20 10:12:48;;;;;;;3.10;2.55;;;;;;;16.70;90.09;100019.88;6250774;28;20057;-76
2021/10/20 10:15:51;;;;;;;2.97;1.90;;;;;;;16.90;88.10;100004.84;6237427;28;20060;-77
2021/10/20 10:18:55;;;;;;;4.30;2.20;;;;;;;17.03;88.51;99992.09;6226082;28;20050;-76
2021/10/20 10:21:57;;;;;;;3.80;1.80;;;;;;;17.21;87.77;99997.50;6244632;28;20038;-77
2021/10/20 10:25:02;;;;;;;3.40;2.03;;;;;;;17.31;86.41;99995.69;6245726;28;20128;-76
2021/10/20 10:28:07;;;;;;;8.90;1.77;;;;;;;17.36;87.17;100011.19;6247084;28;20071;-76
2021/10/20 10:31:11;;;;;;;2.67;1.63;;;;;;;17.21;87.20;100002.81;6250329;28;20072;-77
2021/10/20 10:34:19;;;;;;;8.05;3.35;;;;;;;17.07;89.03;99993.47;6249702;28;20053;-76
2021/10/20 10:37:25;;;;;;;4.07;1.87;;;;;;;17.09;88.71;99993.34;6248651;28;20053;-77
2021/10/20 10:40:32;;;;;;;3.22;2.05;;;;;;;16.95;89.51;100000.78;6249246;28;20379;-77
2021/10/20 10:43:34;;;;;;;3.72;1.58;;;;;;;16.89;91.33;100009.28;6249892;28;20115;-75
2021/10/20 10:46:37;;;;;;;5.85;2.63;;;;;;;16.73;91.69;100004.56;6249758;28;20057;-76
2021/10/20 10:49:40;;;;;;;3.80;1.90;;;;;;;16.68;92.57;99980.22;6250135;28;20659;-76
2021/10/20 10:52:45;;;;;;;2.10;1.55;;;;;;;16.57;94.67;99964.44;6249936;28;20041;-76
2021/10/20 10:56:02;;;;;;;2.88;2.00;;;;;;;16.53;96.32;99965.69;6249138;28;20049;-76
2021/10/20 10:59:07;;;;;;;4.63;2.13;;;;;;;16.61;95.25;99960.53;6247172;28;20095;-77
2021/10/20 11:02:40;;;;;;;3.65;2.28;;;;;;;16.69;95.38;99960.66;6245049;28;20049;-76
2021/10/20 11:05:52;;;;;;;2.60;1.90;;;;;;;16.81;93.22;99945.47;6247438;28;20053;-76
2021/10/20 11:08:55;;;;;;;3.42;1.92;;;;;;;17.04;91.33;99943.34;6225427;28;20060;-77
2021/10/20 11:11:56;;;;;;;3.20;1.80;;;;;;;17.36;91.10;99942.97;6224665;28;20061;-76
2021/10/20 11:14:59;;;;;;;3.97;2.00;;;;;;;17.46;89.07;99945.59;6242819;28;20428;-76
2021/10/20 11:18:01;;;;;;;2.83;1.98;;;;;;;17.42;89.61;99937.06;6242506;28;20049;-76
2021/10/20 11:21:04;;;;;;;4.00;1.63;;;;;;;17.50;88.31;99923.91;6244750;28;20408;-76
2021/10/20 11:24:06;;;;;;;2.58;1.50;;;;;;;17.46;89.59;99927.84;6247737;28;20056;-77
2021/10/20 11:27:08;;;;;;;4.30;2.25;;;;;;;17.38;90.06;99925.06;6249172;28;20060;-76
2021/10/20 11:30:10;;;;;;;2.35;1.58;;;;;;;17.35;89.38;99922.72;6249055;28;20049;-76
2021/10/20 11:33:16;;;;;;;2.45;1.85;;;;;;;17.25;90.41;99937.81;6246343;28;20048;-77
2021/10/20 11:36:19;;;;;;;2.28;1.83;;;;;;;17.20;89.33;99942.72;6245698;28;20393;-77
2021/10/20 11:39:21;;;;;;;3.22;2.13;;;;;;;17.13;90.40;99931.88;6237461;28;20525;-78
2021/10/20 11:42:24;;;;;;;2.88;1.77;;;;;;;16.97;91.17;99926.31;6249153;28;20044;-75
2021/10/20 11:45:30;;;;;;;6.22;2.20;;;;;;;16.94;91.13;99942.50;6248212;28;20081;-77
2021/10/20 11:48:32;;;;;;;3.53;2.13;;;;;;;16.96;90.92;99933.44;6248864;28;20082;-76
2021/10/20 11:51:33;;;;;;;3.42;1.75;;;;;;;16.91;91.24;99950.78;6248363;28;20489;-76
2021/10/20 11:54:38;;;;;;;3.70;1.75;;;;;;;16.85;92.15;99941.56;6248168;28;20127;-76
2021/10/20 11:57:43;;;;;;;2.83;1.98;;;;;;;16.79;92.42;99930.66;6248305;28;20052;-77
2021/10/20 12:00:51;;;;;;;3.28;2.13;;;;;;;16.80;91.76;99942.94;6248285;28;20045;-76
2021/10/20 12:03:53;;;;;;;6.35;2.13;;;;;;;16.78;92.43;99932.50;6247998;28;20049;-76
2021/10/20 12:06:57;;;;;;;4.45;2.00;;;;;;;16.88;91.53;99946.56;6235417;28;20521;-78
2021/10/20 12:10:00;;;;;;;3.00;2.13;;;;;;;16.84;92.23;99953.13;6223602;28;20045;-77
2021/10/20 12:13:03;;;;;;;5.13;2.08;;;;;;;16.78;92.41;99932.50;6223821;28;20049;-77
2021/10/20 12:16:07;;;;;;;3.53;2.20;;;;;;;16.71;93.01;99936.63;6223211;28;20072;-78
2021/10/20 12:19:10;;;;;;;2.60;1.70;;;;;;;16.71;93.29;99940.16;6223558;28;20053;-77
2021/10/20 12:22:13;;;;;;;5.22;2.00;;;;;;;16.85;91.68;99930.09;6223742;28;20148;-77
2021/10/20 12:25:16;;;;;;;3.15;1.90;;;;;;;16.94;91.24;99914.16;6223738;28;20054;-77
2021/10/20 12:28:17;;;;;;;2.95;1.95;;;;;;;16.92;90.69;99924.06;6224348;28;20049;-77
2021/10/20 12:31:20;;;;;;;3.75;2.22;;;;;;;16.82;91.68;99928.56;6224356;28;20053;-78
2021/10/20 12:34:21;;;;;;;4.60;2.13;;;;;;;16.72;92.52;99933.91;6233113;28;20060;-77
2021/10/20 12:37:28;;;;;;;3.25;2.13;;;;;;;16.77;91.70;99914.06;6245916;28;20068;-77
2021/10/20 12:40:31;;;;;;;3.58;1.95;;;;;;;16.73;91.97;99911.69;6248144;28;20563;-77
2021/10/20 12:43:33;;;;;;;4.72;2.17;;;;;;;16.69;91.35;99906.78;6247227;28;20060;-77
2021/10/20 12:46:42;;;;;;;6.32;1.90;;;;;;;16.71;91.74;99899.50;6247814;28;20049;-76
2021/10/20 12:49:49;;;;;;;2.53;2.00;;;;;;;16.73;91.07;99913.50;6247009;28;20428;-76
2021/10/20 12:52:50;;;;;;;4.07;2.47;;;;;;;16.79;90.66;99922.72;6247047;28;20052;-76
2021/10/20 12:55:52;;;;;;;3.30;1.88;;;;;;;16.73;91.15;99921.47;6246567;28;20053;-77
2021/10/20 12:59:04;;;;;;;4.00;2.22;;;;;;;16.76;90.44;99923.84;6247033;28;20139;-77
2021/10/20 13:02:07;;;;;;;2.95;1.95;;;;;;;16.76;90.59;99918.53;6246942;28;20404;-77
2021/10/20 13:05:10;;;;;;;3.35;2.30;;;;;;;16.70;90.75;99908.44;6246820;28;20045;-76
2021/10/20 13:08:13;;;;;;;3.03;2.05;;;;;;;16.68;91.40;99907.75;6234409;28;20133;-74
2021/10/20 13:11:14;;;;;;;6.65;2.08;;;;;;;16.72;90.62;99906.53;6231948;28;20500;-76
2021/10/20 13:14:16;;;;;;;3.22;2.28;;;;;;;16.79;90.32;99889.03;6222705;28;20045;-78
2021/10/20 13:17:18;;;;;;;3.40;1.70;;;;;;;16.77;90.94;99888.38;6224415;28;20504;-77
2021/10/20 13:20:20;;;;;;;3.03;2.08;;;;;;;16.86;90.96;99881.38;6224211;28;20053;-77
2021/10/20 13:23:21;;;;;;;3.42;2.08;;;;;;;16.97;89.69;99879.34;6224292;28;20056;-78
2021/10/20 13:26:23;;;;;;;2.53;2.03;;;;;;;16.95;90.06;99884.00;6222596;28;20077;-75
2021/10/20 13:29:24;;;;;;;2.95;1.83;;;;;;;16.91;90.11;99890.56;6222039;28;20052;-75
2021/10/20 13:32:27;;;;;;;4.68;1.83;;;;;;;16.94;89.91;99894.72;6222255;28;20073;-74
2021/10/20 13:35:28;;;;;;;2.83;2.20;;;;;;;16.90;89.95;99896.03;6221699;28;20516;-75
2021/10/20 13:38:29;;;;;;;3.97;1.85;;;;;;;16.87;90.09;99910.41;6238883;28;20061;-75
2021/10/20 13:41:31;;;;;;;2.88;1.90;;;;;;;16.86;90.92;99894.63;6246530;28;20057;-75
2021/10/20 13:44:32;;;;;;;3.00;2.20;;;;;;;16.79;91.19;99897.00;6246159;28;20049;-75
2021/10/20 13:47:36;;;;;;;3.75;1.95;;;;;;;16.83;91.19;99876.34;6250979;28;20049;-76
2021/10/20 13:50:37;;;;;;;2.75;2.00;;;;;;;16.73;91.62;99882.50;6251520;28;20484;-77
2021/10/20 13:53:39;;;;;;;5.18;2.15;;;;;;;16.77;90.92;99896.31;6251418;28;20054;-76
2021/10/20 13:56:40;;;;;;;3.50;2.10;;;;;;;16.72;91.37;99875.53;6250929;28;20397;-77
2021/10/20 13:59:41;;;;;;;4.65;1.95;;;;;;;16.87;91.01;99885.69;6250063;28;20053;-77
2021/10/20 14:02:44;;;;;;;2.28;1.52;;;;;;;16.81;91.21;99896.88;6238500;28;20045;-75
2021/10/20 14:05:45;;;;;;;3.55;2.33;;;;;;;16.75;91.47;99892.97;6242138;28;20050;-76